Time;durP1;ratioP1;P1;durP2;ratioP2;P2;SDS_P1;SDS_P2;PMS_P1;PMS_P2;Temp;Humidity;BMP_temperature;BMP_pressure;BME280_temperature;BME280_humidity;BME280_pressure;Samples;Min_cycle;Max_cycle;Signal;HPM_P1;HPM_P2
2023/07/26 00:00:40;;;;;;;21.67;10.77;;;;;;;28.80;81.61;100810.34;5059325;28;69926;-38
2023/07/26 00:03:12;;;;;;;24.15;11.35;;;;;;;28.84;75.97;100792.72;5055105;28;65344;-38
2023/07/26 00:05:43;;;;;;;19.60;10.98;;;;;;;28.93;76.08;100801.44;5057098;28;68986;-39
2023/07/26 00:08:15;;;;;;;28.13;11.60;;;;;;;28.98;76.75;100800.81;5061387;28;66098;-40
2023/07/26 00:10:47;;;;;;;19.20;10.20;;;;;;;28.77;84.15;100778.38;5054176;28;70236;-39
2023/07/26 00:13:19;;;;;;;16.55;11.80;;;;;;;28.83;84.33;100809.94;5057129;28;66818;-38
2023/07/26 00:15:50;;;;;;;17.95;10.27;;;;;;;28.72;83.95;100787.13;5060253;28;70060;-38
2023/07/26 00:18:22;;;;;;;13.43;9.95;;;;;;;28.82;82.15;100813.69;5052707;28;65577;-39
2023/07/26 00:20:56;;;;;;;22.85;10.82;;;;;;;28.89;81.54;100800.16;5061375;28;69755;-41
2023/07/26 00:23:28;;;;;;;16.77;10.35;;;;;;;28.84;83.26;100800.81;5059218;28;66509;-40
2023/07/26 00:26:00;;;;;;;16.70;10.15;;;;;;;28.93;82.82;100801.44;5060840;28;70592;-40
2023/07/26 00:28:31;;;;;;;16.80;9.90;;;;;;;28.94;83.10;100806.59;5059625;28;65806;-41
2023/07/26 00:31:03;;;;;;;11.40;8.77;;;;;;;28.99;81.62;100807.84;5054663;28;69873;-40
2023/07/26 00:33:34;;;;;;;15.05;9.02;;;;;;;29.03;81.09;100814.50;5054237;28;66201;-39
2023/07/26 00:36:06;;;;;;;15.57;9.02;;;;;;;29.02;82.22;100818.25;5060308;28;69503;-39
2023/07/26 00:38:38;;;;;;;15.75;9.30;;;;;;;29.09;81.68;100805.59;5053810;28;65764;-37
2023/07/26 00:41:09;;;;;;;11.43;8.63;;;;;;;29.04;82.18;100803.53;5058383;28;69878;-44
2023/07/26 00:43:41;;;;;;;22.52;8.90;;;;;;;29.14;79.68;100806.63;5056657;28;66294;-39
2023/07/26 00:46:13;;;;;;;22.67;9.52;;;;;;;29.16;81.33;100804.53;5053890;28;69484;-39
2023/07/26 00:48:46;;;;;;;18.25;9.18;;;;;;;29.14;79.97;100800.38;5056824;28;66781;-41
2023/07/26 00:51:21;;;;;;;16.20;8.73;;;;;;;29.24;78.83;100805.34;5056460;28;69997;-41
2023/07/26 00:53:52;;;;;;;22.60;8.80;;;;;;;29.28;77.44;100802.03;5053805;28;66279;-40
2023/07/26 00:56:26;;;;;;;17.08;7.78;;;;;;;29.35;77.21;100808.22;5052066;28;70013;-39
2023/07/26 00:58:57;;;;;;;;;;;;;;;29.05;78.32;100817.84;5058318;28;65666;-39
2023/07/26 01:01:28;;;;;;;13.38;7.53;;;;;;;29.43;76.80;100822.56;5053157;28;70641;-40
2023/07/26 01:04:01;;;;;;;10.60;8.27;;;;;;;29.35;76.28;100802.84;5054461;28;65923;-39
2023/07/26 01:06:58;;;;;;;11.40;7.47;;;;;;;28.77;76.39;100704.66;5055918;28;70693;-41
2023/07/26 01:09:36;;;;;;;15.27;7.72;;;;;;;29.05;75.98;100758.44;5052100;28;66492;-39
2023/07/26 01:12:19;;;;;;;11.45;7.10;;;;;;;29.45;76.02;100793.44;5057087;28;69548;-39
2023/07/26 01:14:57;;;;;;;12.07;7.38;;;;;;;29.46;75.53;100798.66;5054884;28;66594;-41
2023/07/26 01:17:30;;;;;;;10.65;6.70;;;;;;;29.64;75.73;100814.19;5054251;28;69621;-39
2023/07/26 01:20:02;;;;;;;11.57;6.88;;;;;;;29.57;75.15;100799.88;5050898;28;66799;-40
2023/07/26 01:22:34;;;;;;;9.00;6.43;;;;;;;29.68;75.50;100811.91;5045255;28;69736;-39
2023/07/26 01:25:06;;;;;;;8.68;6.00;;;;;;;29.70;75.45;100818.78;5055023;28;66060;-40
2023/07/26 01:27:37;;;;;;;8.77;7.05;;;;;;;29.53;74.92;100794.06;5059110;28;69414;-39
2023/07/26 01:30:09;;;;;;;8.45;6.60;;;;;;;29.72;75.53;100819.38;5057745;28;66771;-40
2023/07/26 01:32:42;;;;;;;12.00;7.22;;;;;;;29.32;74.86;100749.22;5043714;28;69667;-40
2023/07/26 01:35:14;;;;;;;8.25;6.35;;;;;;;29.78;75.21;100823.94;5055670;28;65643;-39
2023/07/26 01:37:46;;;;;;;6.95;6.22;;;;;;;29.81;74.91;100823.50;5048631;28;70576;-40
2023/07/26 01:40:20;;;;;;;8.63;6.10;;;;;;;29.83;74.90;100809.75;5055167;28;66488;-40
2023/07/26 01:42:53;;;;;;;7.38;5.60;;;;;;;28.76;74.84;100630.97;5048852;28;70246;-40
2023/07/26 01:45:25;;;;;;;20.83;7.25;;;;;;;29.79;74.85;100798.56;5049286;28;66487;-40
2023/07/26 01:47:56;;;;;;;7.65;6.20;;;;;;;29.88;74.64;100811.84;5055605;28;70231;-40
2023/07/26 01:50:28;;;;;;;7.97;5.65;;;;;;;29.90;74.98;100815.16;5054222;28;66617;-40
2023/07/26 01:53:00;;;;;;;10.63;6.70;;;;;;;29.93;74.95;100818.25;5055579;28;69875;-39
2023/07/26 01:55:31;;;;;;;11.25;6.82;;;;;;;29.73;74.88;100791.31;5072549;28;65870;-40
2023/07/26 01:58:03;;;;;;;11.13;6.40;;;;;;;29.84;74.20;100796.03;5057028;28;68940;-40
2023/07/26 02:00:34;;;;;;;7.13;6.22;;;;;;;29.94;74.46;100800.16;5059867;28;66244;-40
2023/07/26 02:03:06;;;;;;;7.30;6.00;;;;;;;29.81;74.26;100768.56;5056312;28;68717;-41
2023/07/26 02:05:44;;;;;;;6.55;5.85;;;;;;;29.41;74.08;100698.47;5044599;28;66294;-39
2023/07/26 02:08:17;;;;;;;8.38;5.35;;;;;;;30.03;74.59;100783.47;5041219;28;69307;-42
2023/07/26 02:10:49;;;;;;;6.95;5.82;;;;;;;30.07;74.38;100791.97;5054933;28;66325;-39
2023/07/26 02:13:21;;;;;;;9.15;5.47;;;;;;;30.08;74.00;100782.78;5058131;28;69812;-42
2023/07/26 02:15:52;;;;;;;6.97;5.50;;;;;;;30.09;74.10;100798.00;5054651;28;66585;-40
2023/07/26 02:18:26;;;;;;;6.78;5.03;;;;;;;30.13;73.83;100792.97;5054051;28;69922;-40
2023/07/26 02:21:02;;;;;;;5.28;4.75;;;;;;;30.12;74.07;100792.16;5054079;28;65112;-40
2023/07/26 02:23:34;;;;;;;11.90;5.65;;;;;;;29.93;73.96;100756.06;5052663;28;71443;-40
2023/07/26 02:26:05;;;;;;;7.47;5.15;;;;;;;30.17;74.16;100800.44;5051741;28;65320;-40
2023/07/26 02:28:37;;;;;;;5.70;4.65;;;;;;;30.16;73.83;100793.34;5056144;28;69890;-40
2023/07/26 02:31:08;;;;;;;11.27;4.85;;;;;;;30.15;73.83;100789.00;5054196;28;66210;-39
2023/07/26 02:33:40;;;;;;;6.30;4.38;;;;;;;30.24;73.61;100785.00;5056407;28;69731;-39
2023/07/26 02:36:12;;;;;;;8.27;5.50;;;;;;;30.25;73.55;100786.66;5055870;28;66112;-40
2023/07/26 02:38:44;;;;;;;8.32;5.00;;;;;;;30.29;73.91;100792.50;5049356;28;70346;-41
2023/07/26 02:41:16;;;;;;;7.93;4.35;;;;;;;30.16;73.76;100760.06;5047109;28;66282;-39
2023/07/26 02:43:47;;;;;;;8.43;4.88;;;;;;;30.34;73.62;100778.28;5054850;28;70124;-38
2023/07/26 02:46:19;;;;;;;4.60;4.03;;;;;;;30.36;73.65;100778.91;5052824;28;66343;-40
2023/07/26 02:48:50;;;;;;;4.75;3.80;;;;;;;30.38;73.49;100768.69;5050021;28;69306;-41
2023/07/26 02:51:22;;;;;;;7.25;4.43;;;;;;;30.37;73.78;100761.59;5051163;28;67225;-39
2023/07/26 02:53:53;;;;;;;7.43;4.18;;;;;;;30.41;73.29;100757.44;5055742;28;70100;-39
2023/07/26 02:56:25;;;;;;;7.25;4.63;;;;;;;30.46;73.56;100760.31;5036009;28;65083;-40
2023/07/26 02:58:56;;;;;;;6.07;4.30;;;;;;;30.46;73.29;100749.47;5051156;28;71290;-39
2023/07/26 03:01:28;;;;;;;8.18;4.68;;;;;;;30.50;73.45;100756.91;5055380;28;66620;-41
2023/07/26 03:04:00;;;;;;;7.05;4.22;;;;;;;30.55;73.46;100748.13;5055293;28;70899;-40
2023/07/26 03:06:32;;;;;;;5.88;4.00;;;;;;;30.58;73.32;100738.75;5061785;28;65675;-40
2023/07/26 03:09:04;;;;;;;9.02;5.22;;;;;;;30.58;72.83;100736.88;5057092;28;70383;-41
2023/07/26 03:11:39;;;;;;;10.02;4.18;;;;;;;30.61;73.30;100736.41;5046519;28;66356;-40
2023/07/26 03:14:10;;;;;;;7.63;4.07;;;;;;;30.59;72.92;100719.59;5058126;28;70170;-39
2023/07/26 03:16:41;;;;;;;4.40;3.67;;;;;;;30.62;73.12;100732.69;5061550;28;66051;-40
2023/07/26 03:19:13;;;;;;;7.30;3.97;;;;;;;30.62;73.10;100732.69;5048394;28;69827;-39
2023/07/26 03:21:45;;;;;;;6.90;4.20;;;;;;;30.62;72.92;100738.09;5040119;28;66496;-39
2023/07/26 03:24:16;;;;;;;7.25;3.90;;;;;;;30.71;73.07;100750.28;5060546;28;70238;-39
2023/07/26 03:26:48;;;;;;;9.57;4.18;;;;;;;30.68;72.63;100737.19;5053276;28;66132;-40
2023/07/26 03:29:22;;;;;;;4.82;3.40;;;;;;;30.62;72.60;100719.16;5054407;28;70387;-39
2023/07/26 03:31:54;;;;;;;4.75;3.80;;;;;;;30.77;72.96;100734.22;5055029;28;66053;-40
2023/07/26 03:34:26;;;;;;;10.35;4.15;;;;;;;30.78;72.65;100725.84;5052745;28;69958;-41
2023/07/26 03:36:57;;;;;;;5.15;3.53;;;;;;;30.76;72.70;100717.13;5052069;28;65053;-40
2023/07/26 03:39:29;;;;;;;7.43;3.95;;;;;;;30.84;72.60;100713.31;5051667;28;70136;-39
2023/07/26 03:42:01;;;;;;;6.38;3.63;;;;;;;30.89;72.59;100721.59;5053616;28;66319;-40
2023/07/26 03:44:33;;;;;;;7.93;3.72;;;;;;;30.84;72.63;100708.75;5047308;28;70208;-40
2023/07/26 03:47:04;;;;;;;5.45;3.60;;;;;;;30.81;72.66;100705.66;5051459;28;67254;-40
2023/07/26 03:49:36;;;;;;;4.70;2.92;;;;;;;30.88;72.65;100709.94;5058839;28;70728;-40
2023/07/26 03:52:08;;;;;;;16.95;3.70;;;;;;;30.94;72.60;100708.22;5051991;28;65428;-40
2023/07/26 03:54:39;;;;;;;;;;;;;;;30.63;73.73;100701.00;5054614;28;70246;-41
2023/07/26 03:57:10;;;;;;;8.13;3.63;;;;;;;30.94;72.39;100692.78;5062510;28;66561;-39
2023/07/26 03:59:44;;;;;;;9.27;3.65;;;;;;;30.99;72.32;100689.41;5058358;28;69472;-40
2023/07/26 04:02:15;;;;;;;6.45;3.55;;;;;;;31.01;72.05;100692.75;5048071;28;65743;-40
2023/07/26 04:04:47;;;;;;;6.28;3.53;;;;;;;30.98;72.18;100676.94;5057483;28;70457;-41
2023/07/26 04:07:18;;;;;;;6.88;3.20;;;;;;;30.97;72.25;100677.16;5055695;28;66644;-40
2023/07/26 04:09:50;;;;;;;9.15;3.67;;;;;;;31.05;72.02;100672.25;5060639;28;69460;-41
2023/07/26 04:12:21;;;;;;;6.68;3.35;;;;;;;31.08;72.33;100682.63;5055831;28;65303;-39
2023/07/26 04:14:53;;;;;;;6.68;3.28;;;;;;;31.08;71.73;100670.97;5059604;28;69472;-41
2023/07/26 04:17:24;;;;;;;10.38;3.55;;;;;;;31.12;72.18;100656.75;5055360;28;65915;-40
2023/07/26 04:19:56;;;;;;;7.63;3.38;;;;;;;31.11;71.58;100654.25;5053514;28;70099;-40
2023/07/26 04:22:27;;;;;;;6.43;3.30;;;;;;;31.04;71.61;100637.28;5054291;28;66088;-40
2023/07/26 04:24:59;;;;;;;4.88;3.30;;;;;;;31.15;71.45;100656.31;5058200;28;69821;-41
2023/07/26 04:27:30;;;;;;;;;;;;;;;30.89;73.03;100662.03;5055259;28;66067;-40
2023/07/26 04:30:03;;;;;;;6.15;3.10;;;;;;;31.20;71.70;100673.75;5053472;28;70222;-41
2023/07/26 04:32:35;;;;;;;10.57;3.67;;;;;;;31.26;71.74;100656.56;5053390;28;66525;-40
2023/07/26 04:43:40;;;;;;;8.57;3.42;;;;;;;31.29;71.17;100645.31;5057710;28;70968;-40
2023/07/26 04:46:36;;;;;;;6.03;3.15;;;;;;;31.27;71.38;100614.88;5054503;28;66410;-41
2023/07/26 04:49:08;;;;;;;7.55;3.25;;;;;;;31.21;70.89;100602.25;5059784;28;70344;-39
2023/07/26 04:51:39;;;;;;;6.30;2.78;;;;;;;31.21;70.92;100596.84;5057251;28;66479;-40
2023/07/26 04:54:11;;;;;;;9.52;3.53;;;;;;;31.38;70.90;100622.28;5058859;28;69207;-39
2023/07/26 04:56:42;;;;;;;5.78;2.50;;;;;;;31.40;71.22;100622.88;5060745;28;66676;-42
2023/07/26 04:59:14;;;;;;;6.40;3.17;;;;;;;31.43;70.83;100621.59;5055436;28;69426;-40
2023/07/26 05:01:46;;;;;;;7.75;3.47;;;;;;;31.34;70.78;100594.78;5052096;28;65677;-43
2023/07/26 05:04:17;;;;;;;3.30;2.55;;;;;;;31.45;70.93;100617.56;5057363;28;70066;-42
2023/07/26 05:06:49;;;;;;;6.70;3.63;;;;;;;31.46;70.75;100613.00;5058844;28;66418;-41
2023/07/26 05:09:20;;;;;;;4.68;2.67;;;;;;;31.48;70.57;100610.84;5055195;28;69472;-40
2023/07/26 05:11:52;;;;;;;10.30;3.10;;;;;;;31.50;70.65;100606.84;5057648;28;65320;-40
2023/07/26 05:14:23;;;;;;;5.78;2.78;;;;;;;31.51;70.71;100600.41;5056193;28;70018;-39
2023/07/26 05:16:55;;;;;;;11.85;3.38;;;;;;;31.45;70.70;100595.06;5059192;28;66273;-40
2023/07/26 05:19:26;;;;;;;;;;;;;;;31.25;71.16;100595.31;5059358;28;70211;-40
2023/07/26 05:21:58;;;;;;;6.90;2.50;;;;;;;31.54;70.83;100599.94;5056237;28;66090;-42
2023/07/26 05:24:29;;;;;;;6.25;2.85;;;;;;;31.59;70.48;100597.34;5055947;28;69853;-41
2023/07/26 05:27:01;;;;;;;7.78;2.83;;;;;;;31.62;70.49;100598.75;5058754;28;66602;-41
2023/07/26 05:29:32;;;;;;;11.32;3.00;;;;;;;31.54;70.42;100567.41;5048101;28;69122;-42
2023/07/26 05:32:04;;;;;;;5.38;3.13;;;;;;;31.67;70.18;100592.63;5050172;28;66703;-40
2023/07/26 05:34:35;;;;;;;;;;;;;;;31.39;71.10;100594.91;5059830;28;70074;-41
2023/07/26 05:37:07;;;;;;;9.13;3.20;;;;;;;31.69;70.23;100590.53;5052819;28;66317;-40
2023/07/26 05:39:38;;;;;;;10.88;3.40;;;;;;;31.59;70.26;100556.69;5054370;28;69174;-40
2023/07/26 05:42:10;;;;;;;7.32;3.15;;;;;;;31.76;69.93;100569.53;5051829;28;65163;-41
2023/07/26 05:44:42;;;;;;;4.45;2.80;;;;;;;31.72;69.74;100560.22;5052491;28;70662;-40
2023/07/26 05:47:14;;;;;;;6.75;3.00;;;;;;;31.81;69.68;100569.66;5046212;28;66550;-41
2023/07/26 05:49:46;;;;;;;4.88;2.45;;;;;;;31.85;69.90;100556.47;5042028;28;70157;-40
2023/07/26 05:52:21;;;;;;;4.22;2.45;;;;;;;31.85;69.59;100562.72;5051661;28;66292;-40
2023/07/26 05:54:52;;;;;;;5.65;2.72;;;;;;;31.85;69.70;100562.72;5044809;28;69887;-39
2023/07/26 05:57:24;;;;;;;9.15;3.45;;;;;;;31.83;69.62;100556.69;5049617;28;65255;-40
2023/07/26 05:59:55;;;;;;;4.55;2.63;;;;;;;31.40;69.50;100492.78;5047471;28;70016;-41
2023/07/26 06:02:30;;;;;;;4.63;2.70;;;;;;;31.52;69.30;100490.88;5048450;28;65830;-40
2023/07/26 06:05:01;;;;;;;8.32;2.97;;;;;;;31.93;69.36;100543.44;5047315;28;70472;-42
2023/07/26 06:07:36;;;;;;;7.25;2.78;;;;;;;31.94;69.27;100545.06;5053662;28;65464;-41
2023/07/26 06:10:08;;;;;;;;;;;;;;;31.65;69.94;100556.78;5054128;28;69704;-42
2023/07/26 06:12:40;;;;;;;6.32;2.85;;;;;;;31.92;69.31;100547.19;5051537;28;66852;-40
2023/07/26 06:15:11;;;;;;;5.22;2.78;;;;;;;31.90;69.02;100527.59;5057215;28;69886;-40
2023/07/26 06:17:43;;;;;;;5.82;2.47;;;;;;;31.99;69.05;100537.06;5056740;28;66327;-40
2023/07/26 06:20:14;;;;;;;7.93;3.38;;;;;;;32.03;69.05;100526.53;5054001;28;68844;-40
2023/07/26 06:22:47;;;;;;;5.45;2.80;;;;;;;32.05;68.95;100538.81;5053130;28;65695;-40
2023/07/26 06:25:18;;;;;;;8.10;2.70;;;;;;;32.07;68.84;100543.16;5054390;28;70492;-40
2023/07/26 06:27:51;;;;;;;8.90;2.85;;;;;;;32.13;68.75;100577.53;5058679;28;65647;-40
2023/07/26 06:30:22;;;;;;;6.60;2.80;;;;;;;32.10;68.75;100553.56;5057534;28;70208;-40
2023/07/26 06:32:54;;;;;;;9.52;2.67;;;;;;;32.18;68.49;100558.63;5058711;28;65509;-40
2023/07/26 06:35:25;;;;;;;6.20;2.77;;;;;;;32.18;68.37;100555.91;5055822;28;71269;-39
2023/07/26 06:37:57;;;;;;;3.80;2.20;;;;;;;31.92;68.62;100514.63;5052360;28;65675;-42
2023/07/26 06:40:29;;;;;;;5.32;2.85;;;;;;;32.19;68.42;100538.56;5061960;28;69722;-39
2023/07/26 06:43:00;;;;;;;4.72;2.53;;;;;;;32.27;68.15;100538.22;5060308;28;65621;-39
2023/07/26 06:45:32;;;;;;;6.10;3.30;;;;;;;32.24;68.32;100533.25;5060605;28;70022;-39
2023/07/26 06:48:05;;;;;;;7.93;2.95;;;;;;;32.23;68.40;100524.31;5054423;28;65452;-41
2023/07/26 06:50:43;;;;;;;3.70;2.40;;;;;;;32.27;68.07;100521.94;5052724;28;70637;-40
2023/07/26 06:53:15;;;;;;;5.32;2.85;;;;;;;32.31;68.09;100522.25;5053496;28;66380;-41
2023/07/26 06:55:46;;;;;;;10.90;3.33;;;;;;;32.27;68.17;100521.94;5060077;28;69814;-41
2023/07/26 06:58:17;;;;;;;8.02;3.33;;;;;;;32.28;68.19;100512.72;5045817;28;66249;-40
2023/07/26 07:00:49;;;;;;;8.07;2.75;;;;;;;32.17;68.01;100497.28;5054809;28;70445;-40
2023/07/26 07:03:21;;;;;;;7.35;3.13;;;;;;;32.30;68.09;100521.44;5049851;28;65499;-42
2023/07/26 07:05:53;;;;;;;8.52;2.80;;;;;;;32.08;68.11;100474.28;5059726;28;69246;-40
2023/07/26 07:08:25;;;;;;;4.25;2.50;;;;;;;32.29;68.23;100503.53;5053224;28;65481;-40
2023/07/26 07:10:57;;;;;;;5.45;2.70;;;;;;;32.21;67.89;100482.19;5059759;28;70148;-41
2023/07/26 07:13:28;;;;;;;4.65;2.80;;;;;;;32.08;67.82;100458.81;5054752;28;65300;-39
2023/07/26 07:16:00;;;;;;;5.88;2.67;;;;;;;32.34;67.73;100490.03;5059985;28;70191;-41
2023/07/26 07:18:32;;;;;;;4.88;3.08;;;;;;;32.39;67.82;100492.84;5051030;28;66633;-40
2023/07/26 07:21:04;;;;;;;5.78;3.00;;;;;;;32.35;67.48;100480.84;5056806;28;69311;-40
2023/07/26 07:23:36;;;;;;;5.45;2.90;;;;;;;32.05;67.72;100429.47;5058684;28;66569;-41
2023/07/26 07:26:07;;;;;;;5.63;3.10;;;;;;;32.42;67.63;100481.50;5047960;28;70164;-40
2023/07/26 07:28:41;;;;;;;5.53;2.53;;;;;;;32.43;67.69;100460.63;5062484;28;65744;-39
2023/07/26 07:31:13;;;;;;;5.18;3.28;;;;;;;32.25;67.97;100426.34;5054560;28;69206;-40
2023/07/26 07:33:45;;;;;;;5.75;2.85;;;;;;;32.41;67.69;100430.19;5058267;28;66468;-40
2023/07/26 07:36:18;;;;;;;;;;;;;;;32.18;68.17;100441.94;5054957;28;70183;-41
2023/07/26 07:38:49;;;;;;;5.95;2.97;;;;;;;32.41;67.81;100444.59;5061018;28;66479;-40
2023/07/26 07:41:21;;;;;;;5.60;3.78;;;;;;;32.41;67.99;100439.16;5055664;28;69816;-41
2023/07/26 07:43:53;;;;;;;5.25;3.10;;;;;;;32.41;68.00;100436.44;5054814;28;66303;-41
2023/07/26 07:46:28;;;;;;;4.43;2.83;;;;;;;32.43;68.03;100430.75;5045564;28;69392;-41
2023/07/26 07:49:00;;;;;;;6.82;3.50;;;;;;;32.49;67.71;100438.81;5057478;28;66265;-41
2023/07/26 07:51:32;;;;;;;7.05;3.42;;;;;;;32.48;67.94;100434.47;5051824;28;70489;-41
2023/07/26 07:54:03;;;;;;;;;;;;;;;32.22;68.61;100453.97;5055698;28;65324;-43
2023/07/26 07:56:38;;;;;;;5.10;3.05;;;;;;;32.47;67.85;100434.69;5051520;28;70713;-41
2023/07/26 07:59:09;;;;;;;4.47;3.40;;;;;;;32.38;67.74;100409.78;5058659;28;66515;-40
2023/07/26 08:01:41;;;;;;;9.38;2.85;;;;;;;32.44;68.17;100433.25;5058728;28;69827;-40
2023/07/26 08:04:14;;;;;;;4.90;3.42;;;;;;;32.53;67.71;100444.56;5058853;28;66298;-40
2023/07/26 08:06:45;;;;;;;8.82;3.85;;;;;;;32.54;67.71;100432.66;5051439;28;69992;-42
2023/07/26 08:09:17;;;;;;;9.18;3.72;;;;;;;32.55;67.56;100438.91;5047322;28;66341;-40
2023/07/26 08:11:49;;;;;;;4.22;3.30;;;;;;;32.55;67.91;100425.34;5054504;28;69923;-40
2023/07/26 08:14:20;;;;;;;4.95;3.20;;;;;;;32.56;67.52;100418.81;5045481;28;65548;-40
2023/07/26 08:16:52;;;;;;;8.13;3.67;;;;;;;32.39;67.36;100389.69;5045762;28;69156;-41
2023/07/26 08:19:24;;;;;;;5.78;4.03;;;;;;;32.59;67.51;100415.63;5048626;28;66152;-39
2023/07/26 08:21:55;;;;;;;;;;;;;;;32.32;68.14;100405.34;5048791;28;70069;-40
2023/07/26 08:24:27;;;;;;;8.98;4.05;;;;;;;32.31;67.70;100362.94;5056841;28;65615;-40
2023/07/26 08:26:59;;;;;;;;;;;;;;;32.31;68.22;100392.81;5042059;28;69985;-39
2023/07/26 08:29:30;;;;;;;5.30;3.67;;;;;;;32.57;67.78;100387.88;4958011;28;2731808;-39
2023/07/26 08:32:02;;;;;;;7.50;4.35;;;;;;;32.62;67.66;100396.13;5049496;28;70317;-41
2023/07/26 08:34:34;;;;;;;10.27;4.90;;;;;;;32.62;67.63;100377.13;5049972;28;65668;-40
2023/07/26 08:37:06;;;;;;;9.32;4.97;;;;;;;32.65;67.46;100379.34;5053978;28;70379;-40
2023/07/26 08:39:37;;;;;;;;;;;;;;;32.38;68.20;100370.97;5054307;28;65294;-40
2023/07/26 08:42:08;;;;;;;6.85;4.82;;;;;;;32.62;67.93;100371.69;5056927;28;70266;-39
2023/07/26 08:44:41;;;;;;;5.55;4.60;;;;;;;32.63;67.50;100357.06;5056534;28;66422;-40
2023/07/26 08:47:14;;;;;;;6.50;5.03;;;;;;;32.30;67.54;100308.94;5059231;28;70354;-41
2023/07/26 08:49:47;;;;;;;8.43;4.80;;;;;;;32.57;67.69;100363.44;5054051;28;66425;-39
2023/07/26 08:52:19;;;;;;;12.70;5.13;;;;;;;32.70;67.66;100374.00;5053133;28;69591;-41
2023/07/26 08:54:52;;;;;;;8.07;5.05;;;;;;;32.70;67.66;100371.28;5049193;28;65722;-40
2023/07/26 08:57:27;;;;;;;7.45;5.28;;;;;;;32.67;67.46;100363.63;5052857;28;70475;-39
2023/07/26 08:59:59;;;;;;;13.27;6.53;;;;;;;32.71;67.34;100357.47;5052769;28;66532;-40
2023/07/26 09:02:33;;;;;;;11.52;5.82;;;;;;;32.72;67.23;100377.31;5053625;28;70245;-39
2023/07/26 09:05:06;;;;;;;9.15;5.82;;;;;;;32.70;67.27;100390.31;5057661;28;66292;-39
2023/07/26 09:07:40;;;;;;;9.85;6.18;;;;;;;32.70;67.55;100420.19;5057606;28;69435;-39
2023/07/26 09:10:11;;;;;;;;;;;;;;;32.38;69.69;100434.22;5054874;28;66277;-39
2023/07/26 09:12:43;;;;;;;10.95;6.63;;;;;;;32.60;68.88;100433.59;5055149;28;70609;-40
2023/07/26 09:15:15;;;;;;;6.68;5.80;;;;;;;32.61;68.84;100432.50;5055687;28;66103;-39
2023/07/26 09:17:47;;;;;;;10.40;6.65;;;;;;;32.57;69.20;100401.47;5042712;28;69466;-40
2023/07/26 09:20:25;;;;;;;10.60;6.55;;;;;;;32.55;69.73;100398.19;5048088;28;66256;-41
2023/07/26 09:23:08;;;;;;;8.90;7.38;;;;;;;31.96;70.75;100309.66;5041920;28;70662;-41
2023/07/26 09:25:45;;;;;;;8.40;7.20;;;;;;;31.97;69.99;100305.88;5050871;28;66733;-40
2023/07/26 09:28:17;;;;;;;11.57;7.25;;;;;;;32.54;69.93;100393.81;5056696;28;70384;-40
2023/07/26 09:30:48;;;;;;;10.80;7.00;;;;;;;32.53;69.90;100394.88;5045550;28;66229;-40
2023/07/26 09:33:23;;;;;;;8.02;7.10;;;;;;;32.02;70.52;100313.28;5049722;28;72505;-39
2023/07/26 09:35:54;;;;;;;7.32;6.63;;;;;;;32.39;69.89;100361.75;5058544;28;65635;-41
2023/07/26 09:38:30;;;;;;;8.30;6.35;;;;;;;32.25;70.30;100353.06;5052512;28;69316;-40
2023/07/26 09:41:23;;;;;;;9.05;6.95;;;;;;;31.93;70.63;100323.69;5042297;28;66328;-39
2023/07/26 09:43:59;;;;;;;12.05;6.85;;;;;;;32.47;70.51;100402.94;5048307;28;70445;-40
2023/07/26 09:46:31;;;;;;;9.32;7.45;;;;;;;32.46;70.50;100401.28;5045883;28;65388;-40
2023/07/26 09:49:03;;;;;;;8.50;7.07;;;;;;;32.13;70.41;100341.44;5050533;28;70390;-41
2023/07/26 09:51:39;;;;;;;7.75;7.00;;;;;;;31.90;70.70;100288.03;5048994;28;65770;-40
2023/07/26 09:54:34;;;;;;;14.90;7.18;;;;;;;32.42;71.27;100386.50;5053054;28;69456;-43
2023/07/26 09:57:07;;;;;;;14.32;7.95;;;;;;;32.38;70.82;100393.50;5052685;28;66631;-40
2023/07/26 09:59:44;;;;;;;10.85;7.75;;;;;;;31.81;70.66;100312.00;5054479;28;72736;-40
2023/07/26 10:02:17;;;;;;;11.18;7.07;;;;;;;32.26;71.10;100379.13;5050844;28;65529;-40
2023/07/26 10:04:50;;;;;;;;;;;;;;;32.05;73.14;100394.19;5052371;28;70386;-39
2023/07/26 10:07:26;;;;;;;8.65;7.00;;;;;;;32.06;71.12;100374.13;5055574;28;66989;-40
2023/07/26 10:10:30;;;;;;;8.20;6.43;;;;;;;32.09;71.93;100405.38;5049850;28;69348;-40
2023/07/26 10:13:13;;;;;;;9.70;6.47;;;;;;;32.07;71.27;100407.50;5051023;28;65408;-40
2023/07/26 10:15:53;;;;;;;6.68;5.97;;;;;;;32.26;71.00;100466.81;5031662;28;69241;-40
2023/07/26 10:18:33;;;;;;;8.63;6.38;;;;;;;32.10;71.33;100491.97;5030719;28;65818;-39
2023/07/26 10:21:13;;;;;;;6.70;6.10;;;;;;;31.98;71.96;100526.41;5050904;28;70146;-39
2023/07/26 10:23:49;;;;;;;7.78;5.75;;;;;;;31.97;71.19;100505.78;5050273;28;65045;-39
2023/07/26 10:26:25;;;;;;;10.05;6.05;;;;;;;32.09;71.24;100512.03;5041543;28;69176;-39
2023/07/26 10:29:01;;;;;;;7.97;6.18;;;;;;;32.05;71.28;100529.84;5049271;28;65350;-40
2023/07/26 10:31:40;;;;;;;8.27;6.38;;;;;;;31.96;72.19;100521.25;5051310;28;70568;-41
2023/07/26 10:34:26;;;;;;;8.80;5.93;;;;;;;31.93;72.38;100538.00;5059380;28;65794;-41
2023/07/26 10:37:01;;;;;;;6.90;6.30;;;;;;;31.96;72.66;100523.97;5049349;28;69600;-41
2023/07/26 10:39:45;;;;;;;6.72;6.15;;;;;;;31.98;72.61;100527.28;5044753;28;65596;-40
2023/07/26 10:42:44;;;;;;;16.95;5.70;;;;;;;31.96;72.44;100534.81;5045893;28;71281;-40
2023/07/26 10:45:39;;;;;;;10.20;6.10;;;;;;;31.87;73.43;100544.31;5054290;28;66745;-40
2023/07/26 10:48:39;;;;;;;6.40;5.88;;;;;;;31.78;74.10;100560.09;5050647;28;70379;-41
2023/07/26 10:51:31;;;;;;;6.72;5.97;;;;;;;31.76;74.43;100564.13;5052615;28;66339;-40
2023/07/26 10:54:06;;;;;;;10.75;5.78;;;;;;;31.76;73.79;100564.13;5057010;28;69604;-41
2023/07/26 10:56:38;;;;;;;6.57;5.97;;;;;;;31.77;73.84;100571.22;5055951;28;66097;-39
2023/07/26 10:59:16;;;;;;;9.45;5.57;;;;;;;31.79;74.48;100569.09;5056051;28;68574;-40
2023/07/26 11:01:52;;;;;;;7.47;5.33;;;;;;;31.81;73.66;100577.81;5049302;28;65897;-40
2023/07/26 11:04:33;;;;;;;5.63;5.10;;;;;;;31.78;74.52;100589.13;5051536;28;70868;-41
2023/07/26 11:07:14;;;;;;;11.33;5.40;;;;;;;31.72;73.54;100574.63;5025209;28;65183;-41
2023/07/26 11:09:51;;;;;;;10.27;6.72;;;;;;;31.88;73.74;100588.56;5036247;28;70230;-43
2023/07/26 11:12:24;;;;;;;6.47;5.93;;;;;;;31.92;73.37;100595.19;5052223;28;64407;-40
2023/07/26 11:15:01;;;;;;;7.05;5.32;;;;;;;31.86;73.25;100567.09;5044585;28;70023;-42
2023/07/26 11:17:58;;;;;;;6.63;6.05;;;;;;;31.48;73.67;100513.25;5049425;28;67328;-40
2023/07/26 11:20:32;;;;;;;6.72;6.22;;;;;;;31.94;73.30;100596.59;5042286;28;70768;-40
2023/07/26 11:23:28;;;;;;;10.45;6.90;;;;;;;31.82;74.18;100601.16;5034914;28;66223;-40
2023/07/26 11:26:05;;;;;;;8.45;6.07;;;;;;;31.84;73.21;100599.03;5053155;28;69592;-41
2023/07/26 11:28:38;;;;;;;11.02;7.20;;;;;;;31.93;73.10;100622.09;5058554;28;65397;-40
2023/07/26 11:31:22;;;;;;;17.45;6.57;;;;;;;31.34;73.76;100523.47;5034537;28;69500;-41
2023/07/26 11:34:25;;;;;;;6.15;5.55;;;;;;;31.38;72.84;100530.13;5057474;28;65924;-40
2023/07/26 11:37:12;;;;;;;;;;;;;;;31.60;75.32;100603.59;5058893;28;70333;-40
2023/07/26 11:40:12;;;;;;;9.93;5.10;;;;;;;31.73;74.35;100613.41;5051248;28;66306;-40
2023/07/26 11:42:50;;;;;;;5.50;5.10;;;;;;;31.42;73.07;100539.41;5054059;28;69577;-42
2023/07/26 11:45:43;;;;;;;10.60;5.20;;;;;;;31.42;73.37;100549.44;5044245;28;65445;-41
2023/07/26 11:48:16;;;;;;;10.40;4.88;;;;;;;31.28;72.81;100510.84;5048243;28;70193;-42
2023/07/26 11:50:48;;;;;;;5.00;4.47;;;;;;;31.88;73.13;100627.34;5059240;28;66622;-42
2023/07/26 11:53:27;;;;;;;6.47;5.35;;;;;;;31.84;72.95;100620.72;5058772;28;70042;-43
2023/07/26 11:56:15;;;;;;;5.97;5.28;;;;;;;31.80;72.98;100622.28;5055020;28;65390;-41
2023/07/26 11:58:47;;;;;;;5.78;5.28;;;;;;;31.67;72.94;100603.47;5056518;28;69581;-40
2023/07/26 12:01:18;;;;;;;7.95;5.40;;;;;;;31.81;72.87;100621.19;5055977;28;66158;-43
2023/07/26 12:03:50;;;;;;;;;;;;;;;31.45;74.42;100636.53;5053620;28;70152;-41
2023/07/26 12:06:31;;;;;;;11.50;5.57;;;;;;;31.68;73.38;100637.66;5054485;28;66102;-41